createdAt,value
2022-09-11T00:01:23.260Z,84.10
2022-09-11T00:03:14.087Z,84.20
2022-09-11T00:05:05.278Z,84.00
2022-09-11T00:06:56.058Z,83.70
2022-09-11T00:08:47.265Z,83.30
2022-09-11T00:10:38.713Z,83.00
2022-09-11T00:12:29.460Z,83.00
2022-09-11T00:14:19.637Z,82.90
2022-09-11T00:16:19.234Z,83.20
2022-09-11T00:18:11.406Z,83.60
2022-09-11T00:20:01.943Z,83.70
2022-09-11T00:21:52.366Z,84.20
2022-09-11T00:23:42.947Z,84.40
2022-09-11T00:25:34.388Z,84.30
2022-09-11T00:27:25.371Z,84.10
2022-09-11T00:29:15.679Z,84.50
2022-09-11T00:31:08.098Z,84.40
2022-09-11T00:32:59.922Z,84.40
2022-09-11T00:34:50.582Z,83.70
2022-09-11T00:36:41.145Z,83.50
2022-09-11T00:38:33.123Z,83.10
2022-09-11T00:40:24.890Z,82.80
2022-09-11T00:42:15.856Z,82.60
2022-09-11T00:44:07.687Z,82.80
2022-09-11T00:46:01.424Z,83.20
2022-09-11T00:47:54.155Z,83.00
2022-09-11T00:49:47.841Z,82.80
2022-09-11T00:51:38.809Z,82.80
2022-09-11T00:53:30.239Z,82.70
2022-09-11T00:55:22.218Z,82.80
2022-09-11T00:57:13.001Z,83.50
2022-09-11T00:59:04.375Z,83.60
2022-09-11T01:00:56.520Z,83.40
2022-09-11T01:02:48.517Z,83.70
2022-09-11T01:04:39.812Z,84.00
2022-09-11T01:06:32.394Z,83.70
2022-09-11T01:08:22.804Z,83.50
2022-09-11T01:10:13.306Z,83.30
2022-09-11T01:12:07.059Z,83.60
2022-09-11T01:14:04.153Z,83.80
2022-09-11T01:15:59.564Z,83.80
2022-09-11T01:17:55.801Z,84.10
2022-09-11T01:20:09.751Z,84.00
2022-09-11T01:22:26.170Z,84.00
2022-09-11T01:24:23.447Z,84.00
2022-09-11T01:26:33.437Z,83.90
2022-09-11T01:28:29.592Z,84.10
2022-09-11T01:30:21.407Z,84.30
2022-09-11T01:32:19.112Z,84.70
2022-09-11T01:34:12.166Z,84.70
2022-09-11T01:36:05.060Z,85.20
2022-09-11T01:37:59.786Z,85.10
2022-09-11T01:39:54.741Z,85.00
2022-09-11T01:41:48.048Z,85.40
2022-09-11T01:43:42.286Z,85.00
2022-09-11T01:45:34.318Z,84.70
2022-09-11T01:47:24.827Z,84.30
2022-09-11T01:49:16.977Z,84.50
2022-09-11T01:51:09.864Z,85.00
2022-09-11T01:53:03.500Z,85.20
2022-09-11T01:54:59.413Z,84.80
2022-09-11T01:56:52.627Z,84.40
2022-09-11T01:58:45.701Z,83.90
2022-09-11T02:00:37.676Z,83.80
2022-09-11T02:02:31.006Z,84.00
2022-09-11T02:04:23.848Z,83.90
2022-09-11T02:06:18.292Z,84.40
2022-09-11T02:08:10.710Z,84.80
2022-09-11T02:10:06.077Z,84.90
2022-09-11T02:11:57.921Z,84.20
2022-09-11T02:13:55.270Z,84.50
2022-09-11T02:15:49.596Z,85.10
2022-09-11T02:17:46.221Z,85.60
2022-09-11T02:19:36.773Z,85.90
2022-09-11T02:21:27.738Z,86.10
2022-09-11T02:23:18.112Z,86.10
2022-09-11T02:25:09.183Z,85.80
2022-09-11T02:27:03.050Z,85.50
2022-09-11T02:28:55.099Z,85.30
2022-09-11T02:30:45.467Z,85.30
2022-09-11T02:32:37.070Z,84.70
2022-09-11T02:34:31.408Z,84.90
2022-09-11T02:36:36.491Z,84.70
2022-09-11T02:38:30.460Z,84.40
2022-09-11T02:40:34.350Z,84.30
2022-09-11T02:42:32.775Z,84.60
2022-09-11T02:44:28.823Z,84.20
2022-09-11T02:46:46.255Z,83.90
2022-09-11T02:48:44.819Z,84.60
2022-09-11T02:50:41.069Z,85.00
2022-09-11T02:52:39.173Z,84.70
2022-09-11T02:54:35.039Z,84.50
2022-09-11T02:56:31.018Z,84.10
2022-09-11T02:58:24.412Z,84.50
2022-09-11T03:00:16.642Z,84.20
2022-09-11T03:02:09.451Z,83.90
2022-09-11T03:04:00.135Z,83.60
2022-09-11T03:05:51.099Z,83.70
2022-09-11T03:07:41.897Z,83.50
2022-09-11T03:09:32.302Z,84.00
2022-09-11T03:11:23.696Z,84.30
2022-09-11T03:13:14.097Z,84.40
2022-09-11T03:15:05.756Z,84.80
2022-09-11T03:16:57.922Z,84.80
2022-09-11T03:18:48.482Z,84.90
2022-09-11T03:20:38.987Z,84.70
2022-09-11T03:22:29.362Z,84.90
2022-09-11T03:24:19.721Z,85.10
2022-09-11T03:26:10.259Z,85.50
2022-09-11T03:28:00.603Z,85.60
2022-09-11T03:29:51.037Z,85.20
2022-09-11T03:31:41.329Z,84.70
2022-09-11T03:33:33.402Z,85.30
2022-09-11T03:35:23.873Z,85.50
2022-09-11T03:37:14.558Z,85.10
2022-09-11T03:39:05.715Z,85.20
2022-09-11T03:40:56.055Z,85.40
2022-09-11T03:42:46.463Z,85.30
2022-09-11T03:44:36.947Z,85.30
2022-09-11T03:46:27.417Z,85.40
2022-09-11T03:48:18.409Z,85.40
2022-09-11T03:50:11.032Z,85.10
2022-09-11T03:52:01.715Z,85.10
2022-09-11T03:53:52.105Z,85.40
2022-09-11T03:55:42.898Z,85.30
2022-09-11T03:57:33.765Z,85.20
2022-09-11T03:59:24.181Z,85.10
2022-09-11T04:01:15.801Z,85.40
2022-09-11T04:03:06.496Z,85.40
2022-09-11T04:04:57.067Z,85.30
2022-09-11T04:06:48.725Z,85.30
2022-09-11T04:08:40.324Z,85.40
2022-09-11T04:10:32.228Z,85.50
2022-09-11T04:12:23.028Z,85.00
2022-09-11T04:14:13.650Z,84.80
2022-09-11T04:16:05.912Z,85.00
2022-09-11T04:17:56.244Z,84.70
2022-09-11T04:19:46.715Z,84.70
2022-09-11T04:21:37.371Z,84.80
2022-09-11T04:23:28.957Z,84.70
2022-09-11T04:25:19.919Z,85.10
2022-09-11T04:27:10.213Z,85.30
2022-09-11T04:29:00.629Z,85.60
2022-09-11T04:30:51.202Z,85.40
2022-09-11T04:32:41.620Z,85.50
2022-09-11T04:34:32.199Z,85.40
2022-09-11T04:36:23.210Z,85.00
2022-09-11T04:38:13.921Z,85.00
2022-09-11T04:40:06.788Z,85.10
2022-09-11T04:41:57.459Z,85.50
2022-09-11T04:43:47.639Z,85.50
2022-09-11T04:45:38.074Z,85.30
2022-09-11T04:47:28.748Z,85.00
2022-09-11T04:49:19.078Z,84.70
2022-09-11T04:51:09.422Z,84.80
2022-09-11T04:53:00.012Z,84.60
2022-09-11T04:54:50.312Z,85.10
2022-09-11T04:56:41.985Z,85.30
2022-09-11T04:58:32.729Z,85.10
2022-09-11T05:00:23.014Z,84.90
2022-09-11T05:02:13.673Z,84.50
2022-09-11T05:04:04.158Z,84.80
2022-09-11T05:05:54.815Z,85.10
2022-09-11T05:07:44.990Z,85.40
2022-09-11T05:09:35.472Z,85.30
2022-09-11T05:11:25.661Z,84.90
2022-09-11T05:13:17.973Z,84.80
2022-09-11T05:15:09.570Z,84.80
2022-09-11T05:16:59.946Z,85.40
2022-09-11T05:18:51.550Z,85.50
2022-09-11T05:20:42.022Z,85.10
2022-09-11T05:22:32.323Z,85.70
2022-09-11T05:24:22.550Z,86.20
2022-09-11T05:26:15.221Z,86.30
2022-09-11T05:28:05.432Z,86.10
2022-09-11T05:29:57.316Z,85.90
2022-09-11T05:31:47.978Z,85.80
2022-09-11T05:33:38.314Z,85.40
2022-09-11T05:35:32.250Z,85.20
2022-09-11T05:37:23.227Z,85.40
2022-09-11T05:39:13.960Z,85.80
2022-09-11T05:41:05.779Z,86.20
2022-09-11T05:42:56.120Z,86.20
2022-09-11T05:44:46.436Z,85.90
2022-09-11T05:46:38.352Z,85.80
2022-09-11T05:48:29.205Z,85.70
2022-09-11T05:50:20.380Z,85.70
2022-09-11T05:52:11.086Z,85.60
2022-09-11T05:54:01.643Z,86.00
2022-09-11T05:55:52.114Z,86.20
2022-09-11T05:57:42.644Z,86.40
2022-09-11T05:59:33.252Z,86.60
2022-09-11T06:01:25.451Z,86.80
2022-09-11T06:03:18.253Z,86.50
2022-09-11T06:05:09.423Z,86.20
2022-09-11T06:06:59.840Z,85.70
2022-09-11T06:08:50.377Z,85.50
2022-09-11T06:10:45.143Z,85.70
2022-09-11T06:12:35.654Z,86.00
2022-09-11T06:14:26.095Z,86.20
2022-09-11T06:16:18.806Z,86.60
2022-09-11T06:18:09.425Z,86.70
2022-09-11T06:20:01.901Z,87.00
2022-09-11T06:21:52.378Z,87.10
2022-09-11T06:23:43.107Z,87.20
2022-09-11T06:25:33.748Z,87.20
2022-09-11T06:27:23.995Z,87.20
2022-09-11T06:29:14.755Z,87.20
2022-09-11T06:31:06.289Z,87.00
2022-09-11T06:32:56.738Z,87.00
2022-09-11T06:34:47.112Z,86.60
2022-09-11T06:36:39.247Z,86.50
2022-09-11T06:38:30.855Z,86.40
2022-09-11T06:40:21.424Z,86.20
2022-09-11T06:42:11.670Z,85.90
2022-09-11T06:44:02.576Z,86.00
2022-09-11T06:45:53.222Z,85.90
2022-09-11T06:47:43.780Z,86.20
2022-09-11T06:49:34.310Z,86.10
2022-09-11T06:51:25.007Z,86.20
2022-09-11T06:53:16.588Z,86.20
2022-09-11T06:55:07.354Z,86.40
2022-09-11T06:56:57.916Z,86.30
2022-09-11T06:58:48.252Z,86.10
2022-09-11T07:00:38.534Z,86.00
2022-09-11T07:02:28.876Z,85.80
2022-09-11T07:04:19.178Z,85.70
2022-09-11T07:06:09.845Z,85.70
2022-09-11T07:08:00.617Z,85.70
2022-09-11T07:09:52.551Z,85.70
2022-09-11T07:11:43.267Z,85.60
2022-09-11T07:13:37.353Z,85.30
2022-09-11T07:15:27.991Z,85.20
2022-09-11T07:17:18.363Z,85.10
2022-09-11T07:19:08.930Z,85.00
2022-09-11T07:20:59.338Z,85.10
2022-09-11T07:22:50.087Z,85.00
2022-09-11T07:24:40.528Z,84.80
2022-09-11T07:26:32.384Z,84.20
2022-09-11T07:28:22.981Z,83.90
2022-09-11T07:30:13.696Z,83.70
2022-09-11T07:32:04.171Z,83.10
2022-09-11T07:33:54.498Z,82.90
2022-09-11T07:35:45.310Z,83.10
2022-09-11T07:37:36.061Z,82.90
2022-09-11T07:39:26.524Z,83.00
2022-09-11T07:41:19.714Z,83.20
2022-09-11T07:43:11.523Z,82.70
2022-09-11T07:45:01.842Z,82.40
2022-09-11T07:46:52.338Z,82.50
2022-09-11T07:48:43.077Z,82.30
2022-09-11T07:50:33.326Z,82.20
2022-09-11T07:52:24.001Z,82.30
2022-09-11T07:54:14.665Z,81.90
2022-09-11T07:56:07.152Z,81.70
2022-09-11T07:57:58.143Z,81.60
2022-09-11T07:59:50.106Z,81.20
2022-09-11T08:01:40.875Z,80.90
2022-09-11T08:03:31.141Z,80.50
2022-09-11T08:05:21.275Z,79.90
2022-09-11T08:07:11.897Z,79.80
2022-09-11T08:09:04.175Z,80.20
2022-09-11T08:10:54.967Z,79.60
2022-09-11T08:12:46.558Z,79.70
2022-09-11T08:14:37.372Z,79.60
2022-09-11T08:16:29.362Z,79.80
2022-09-11T08:18:20.309Z,80.10
2022-09-11T08:20:10.697Z,79.40
2022-09-11T08:22:01.147Z,79.60
2022-09-11T08:23:51.945Z,79.50
2022-09-11T08:25:43.042Z,79.40
2022-09-11T08:27:33.433Z,78.70
2022-09-11T08:29:24.182Z,79.10
2022-09-11T08:31:14.762Z,79.00
2022-09-11T08:33:06.722Z,78.50
2022-09-11T08:34:57.155Z,78.40
2022-09-11T08:36:47.780Z,78.30
2022-09-11T08:38:38.572Z,78.10
2022-09-11T08:40:29.359Z,78.00
2022-09-11T08:42:19.670Z,77.00
2022-09-11T08:44:16.922Z,77.10
2022-09-11T08:46:08.775Z,77.20
2022-09-11T08:47:59.497Z,76.80
2022-09-11T08:49:57.049Z,76.00
2022-09-11T08:51:48.543Z,76.00
2022-09-11T08:53:39.206Z,76.20
2022-09-11T08:55:33.623Z,74.90
2022-09-11T08:57:42.419Z,74.70
2022-09-11T08:59:41.823Z,75.10
2022-09-11T09:01:39.093Z,73.80
2022-09-11T09:03:52.046Z,73.60
2022-09-11T09:05:50.428Z,73.30
2022-09-11T09:07:52.050Z,73.10
2022-09-11T09:09:48.579Z,73.30
2022-09-11T09:11:45.306Z,73.80
2022-09-11T09:13:52.585Z,73.10
2022-09-11T09:15:49.575Z,74.20
2022-09-11T09:17:42.429Z,72.80
2022-09-11T09:19:35.362Z,73.70
2022-09-11T09:21:30.197Z,73.70
2022-09-11T09:23:23.317Z,72.90
2022-09-11T09:25:15.745Z,73.00
2022-09-11T09:27:05.883Z,73.70
2022-09-11T09:28:59.460Z,71.70
2022-09-11T09:30:51.765Z,72.90
2022-09-11T09:32:45.726Z,72.20
2022-09-11T09:34:37.419Z,71.20
2022-09-11T09:36:31.228Z,72.10
2022-09-11T09:38:26.881Z,72.00
2022-09-11T09:40:18.593Z,71.60
2022-09-11T09:42:15.658Z,71.90
2022-09-11T09:44:09.701Z,71.80
2022-09-11T09:46:08.899Z,71.50
2022-09-11T09:47:59.263Z,71.90
2022-09-11T09:49:50.331Z,71.60
2022-09-11T09:51:42.233Z,72.30
2022-09-11T09:53:35.918Z,72.00
2022-09-11T09:55:26.596Z,72.20
2022-09-11T09:57:17.002Z,72.20
2022-09-11T09:59:14.835Z,72.70
2022-09-11T10:01:07.943Z,70.50
2022-09-11T10:02:58.810Z,70.70
2022-09-11T10:05:05.978Z,71.30
2022-09-11T10:07:08.427Z,70.20
2022-09-11T10:09:03.300Z,70.30
2022-09-11T10:10:55.694Z,69.70
2022-09-11T10:12:45.886Z,69.00
2022-09-11T10:14:56.731Z,69.80
2022-09-11T10:16:48.156Z,70.30
2022-09-11T10:18:41.023Z,70.60
2022-09-11T10:20:31.297Z,70.10
2022-09-11T10:22:25.824Z,69.70
2022-09-11T10:24:22.197Z,69.80
2022-09-11T10:26:16.211Z,70.30
2022-09-11T10:28:11.353Z,69.80
2022-09-11T10:30:02.361Z,69.10
2022-09-11T10:31:54.605Z,69.30
2022-09-11T10:33:46.481Z,69.90
2022-09-11T10:35:36.839Z,70.50
2022-09-11T10:37:29.940Z,71.30
2022-09-11T10:39:22.222Z,70.90
2022-09-11T10:41:16.682Z,70.70
2022-09-11T10:43:19.131Z,70.40
2022-09-11T10:45:14.562Z,70.80
2022-09-11T10:47:12.319Z,70.40
2022-09-11T10:49:23.818Z,70.10
2022-09-11T10:51:14.334Z,68.60
2022-09-11T10:53:15.438Z,68.90
2022-09-11T10:55:08.581Z,68.90
2022-09-11T10:57:08.073Z,67.90
2022-09-11T10:59:01.419Z,68.80
2022-09-11T11:00:52.030Z,68.20
2022-09-11T11:02:44.737Z,68.10
2022-09-11T11:04:35.384Z,66.60
2022-09-11T11:06:36.628Z,66.60
2022-09-11T11:08:55.692Z,65.20
2022-09-11T11:10:56.913Z,66.90
2022-09-11T11:12:57.411Z,67.50
2022-09-11T11:15:05.385Z,66.50
2022-09-11T11:17:01.968Z,67.20
2022-09-11T11:19:00.195Z,66.90
2022-09-11T11:20:59.018Z,66.50
2022-09-11T11:23:17.709Z,66.30
2022-09-11T11:25:17.073Z,65.60
2022-09-11T11:27:28.584Z,62.30
2022-09-11T11:29:31.551Z,64.20
2022-09-11T11:31:31.485Z,64.60
2022-09-11T11:33:48.175Z,63.50
2022-09-11T11:35:45.124Z,64.60
2022-09-11T11:37:39.728Z,65.00
2022-09-11T11:39:33.858Z,63.30
2022-09-11T11:41:28.012Z,62.70
2022-09-11T11:43:22.014Z,62.50
2022-09-11T11:45:19.873Z,63.40
2022-09-11T11:47:10.936Z,62.60
2022-09-11T11:49:04.707Z,62.60
2022-09-11T11:50:59.033Z,63.50
2022-09-11T11:52:56.606Z,64.60
2022-09-11T11:54:50.871Z,64.40
2022-09-11T11:56:45.990Z,64.50
2022-09-11T11:58:42.908Z,65.10
2022-09-11T12:00:37.490Z,65.00
2022-09-11T12:02:30.856Z,65.00
2022-09-11T12:04:29.764Z,65.50
2022-09-11T12:06:20.545Z,64.90
2022-09-11T12:08:13.236Z,64.50
2022-09-11T12:10:06.640Z,65.20
2022-09-11T12:12:04.555Z,65.20
2022-09-11T12:13:55.629Z,66.40
2022-09-11T12:16:11.525Z,66.20
2022-09-11T12:18:04.407Z,63.40
2022-09-11T12:20:15.445Z,64.20
2022-09-11T12:22:11.338Z,64.10
2022-09-11T12:24:18.804Z,64.50
2022-09-11T12:26:17.884Z,65.10
2022-09-11T12:28:21.558Z,64.50
2022-09-11T12:30:22.377Z,63.20
2022-09-11T12:32:42.522Z,63.70
2022-09-11T12:34:58.597Z,61.80
2022-09-11T12:36:52.055Z,61.90
2022-09-11T12:38:45.928Z,62.90
2022-09-11T12:40:39.287Z,61.90
2022-09-11T12:42:46.892Z,61.50
2022-09-11T12:44:57.260Z,59.80
2022-09-11T12:47:17.093Z,59.90
2022-09-11T12:49:22.157Z,62.90
2022-09-11T12:51:20.575Z,60.90
2022-09-11T12:53:16.977Z,58.10
2022-09-11T12:55:29.950Z,61.40
2022-09-11T12:57:25.411Z,58.80
2022-09-11T12:59:22.510Z,59.00
2022-09-11T13:01:18.060Z,57.20
2022-09-11T13:03:18.011Z,56.20
2022-09-11T13:05:17.064Z,54.80
2022-09-11T13:07:07.765Z,55.30
2022-09-11T13:09:00.044Z,56.10
2022-09-11T13:10:51.071Z,56.90
2022-09-11T13:12:52.207Z,56.30
2022-09-11T13:14:47.987Z,54.90
2022-09-11T13:16:44.754Z,54.50
2022-09-11T13:18:35.125Z,57.00
2022-09-11T13:20:25.582Z,57.20
2022-09-11T13:22:24.626Z,57.60
2022-09-11T13:24:22.867Z,55.60
2022-09-11T13:26:18.572Z,57.90
2022-09-11T13:28:11.514Z,56.90
2022-09-11T13:30:02.014Z,58.80
2022-09-11T13:31:54.546Z,57.40
2022-09-11T13:33:49.132Z,55.40
2022-09-11T13:35:44.227Z,53.70
2022-09-11T13:37:37.964Z,57.10
2022-09-11T13:39:28.664Z,55.80
2022-09-11T13:41:22.704Z,57.60
2022-09-11T13:43:15.427Z,56.70
2022-09-11T13:45:07.561Z,53.40
2022-09-11T13:46:59.779Z,55.90
2022-09-11T13:48:51.060Z,57.90
2022-09-11T13:50:41.539Z,55.30
2022-09-11T13:52:34.042Z,55.40
2022-09-11T13:54:28.298Z,55.50
2022-09-11T13:56:35.380Z,57.40
2022-09-11T13:58:29.295Z,54.80
2022-09-11T14:00:39.223Z,54.30
2022-09-11T14:02:51.907Z,57.10
2022-09-11T14:04:43.110Z,55.90
2022-09-11T14:06:33.834Z,55.50
2022-09-11T14:08:34.803Z,55.10
2022-09-11T14:10:28.491Z,56.20
2022-09-11T14:12:19.127Z,56.60
2022-09-11T14:14:12.180Z,58.30
2022-09-11T14:16:05.873Z,57.90
2022-09-11T14:18:01.385Z,57.90
2022-09-11T14:19:55.687Z,59.00
2022-09-11T14:21:50.320Z,59.10
2022-09-11T14:23:42.264Z,60.10
2022-09-11T14:25:32.549Z,59.50
2022-09-11T14:27:37.392Z,59.70
2022-09-11T14:29:29.076Z,59.50
2022-09-11T14:31:37.625Z,60.50
2022-09-11T14:33:29.546Z,60.60
2022-09-11T14:35:20.110Z,60.00
2022-09-11T14:37:12.273Z,60.50
2022-09-11T14:39:03.181Z,60.20
2022-09-11T14:40:56.427Z,59.90
2022-09-11T14:42:47.391Z,60.50
2022-09-11T14:44:39.082Z,60.20
2022-09-11T14:46:29.784Z,59.70
2022-09-11T14:48:21.170Z,60.10
2022-09-11T14:50:13.282Z,61.90
2022-09-11T14:52:03.765Z,60.50
2022-09-11T14:53:54.058Z,61.80
2022-09-11T14:55:44.829Z,60.10
2022-09-11T14:57:35.445Z,61.10
2022-09-11T14:59:26.415Z,60.50
2022-09-11T15:01:16.698Z,60.20
2022-09-11T15:03:07.151Z,58.90
2022-09-11T15:04:58.374Z,60.60
2022-09-11T15:06:52.284Z,59.30
2022-09-11T15:08:43.026Z,59.90
2022-09-11T15:10:33.536Z,60.90
2022-09-11T15:12:23.913Z,58.90
2022-09-11T15:14:23.681Z,59.10
2022-09-11T15:16:24.723Z,60.00
2022-09-11T15:18:15.111Z,59.70
2022-09-11T15:20:07.187Z,60.90
2022-09-11T15:21:59.145Z,60.80
2022-09-11T15:23:49.866Z,61.00
2022-09-11T15:25:40.101Z,61.30
2022-09-11T15:27:30.615Z,60.30
2022-09-11T15:29:21.454Z,60.50
2022-09-11T15:31:11.577Z,61.30
2022-09-11T15:33:02.049Z,59.20
2022-09-11T15:34:52.279Z,59.30
2022-09-11T15:36:43.412Z,59.80
2022-09-11T15:38:35.485Z,60.20
2022-09-11T15:40:25.930Z,60.30
2022-09-11T15:42:16.323Z,60.00
2022-09-11T15:44:09.628Z,59.70
2022-09-11T15:45:59.910Z,59.40
2022-09-11T15:47:50.362Z,63.10
2022-09-11T15:49:42.575Z,60.30
2022-09-11T15:51:33.338Z,60.70
2022-09-11T15:53:23.641Z,62.30
2022-09-11T15:55:15.475Z,63.10
2022-09-11T15:57:06.261Z,63.70
2022-09-11T15:58:57.678Z,64.20
2022-09-11T16:00:47.964Z,63.10
2022-09-11T16:02:38.349Z,62.90
2022-09-11T16:04:29.597Z,63.60
2022-09-11T16:06:21.398Z,63.70
2022-09-11T16:08:11.835Z,64.30
2022-09-11T16:10:02.516Z,65.00
2022-09-11T16:11:55.227Z,65.00
2022-09-11T16:13:47.546Z,65.10
2022-09-11T16:15:37.802Z,65.30
2022-09-11T16:17:28.390Z,65.80
2022-09-11T16:19:21.244Z,65.80
2022-09-11T16:21:12.620Z,66.30
2022-09-11T16:23:02.913Z,66.20
2022-09-11T16:24:53.528Z,66.00
2022-09-11T16:26:44.683Z,66.10
2022-09-11T16:28:38.184Z,66.70
2022-09-11T16:30:47.425Z,66.50
2022-09-11T16:32:39.408Z,66.90
2022-09-11T16:34:29.741Z,67.10
2022-09-11T16:36:20.877Z,67.20
2022-09-11T16:38:11.360Z,67.00
2022-09-11T16:40:02.548Z,66.40
2022-09-11T16:41:52.738Z,67.40
2022-09-11T16:43:46.121Z,67.30
2022-09-11T16:45:36.784Z,67.10
2022-09-11T16:47:27.097Z,67.50
2022-09-11T16:49:18.904Z,67.20
2022-09-11T16:51:09.554Z,67.50
2022-09-11T16:53:00.130Z,67.30
2022-09-11T16:54:50.766Z,66.70
2022-09-11T16:56:45.706Z,66.30
2022-09-11T16:58:36.514Z,66.30
2022-09-11T17:00:28.381Z,66.50
2022-09-11T17:02:18.543Z,66.70
2022-09-11T17:04:08.798Z,66.70
2022-09-11T17:05:59.198Z,66.60
2022-09-11T17:07:49.590Z,66.70
2022-09-11T17:09:40.039Z,66.10
2022-09-11T17:11:31.748Z,66.60
2022-09-11T17:13:22.502Z,66.30
2022-09-11T17:15:12.787Z,66.00
2022-09-11T17:17:04.578Z,66.10
2022-09-11T17:18:56.135Z,66.00
2022-09-11T17:20:46.430Z,66.00
2022-09-11T17:22:37.015Z,65.80
2022-09-11T17:24:27.436Z,66.30
2022-09-11T17:26:17.624Z,65.80
2022-09-11T17:28:08.122Z,66.10
2022-09-11T17:29:58.827Z,66.00
2022-09-11T17:31:49.111Z,65.50
2022-09-11T17:33:41.731Z,65.70
2022-09-11T17:35:31.967Z,65.80
2022-09-11T17:37:22.504Z,66.00
2022-09-11T17:39:12.713Z,67.40
2022-09-11T17:41:04.314Z,66.60
2022-09-11T17:42:54.774Z,66.70
2022-09-11T17:44:45.101Z,67.70
2022-09-11T17:46:35.436Z,67.60
2022-09-11T17:48:25.787Z,67.40
2022-09-11T17:50:17.627Z,66.90
2022-09-11T17:52:08.208Z,66.70
2022-09-11T17:53:59.099Z,66.80
2022-09-11T17:55:49.728Z,67.40
2022-09-11T17:57:40.115Z,68.10
2022-09-11T17:59:30.328Z,67.80
2022-09-11T18:01:21.602Z,68.30
2022-09-11T18:03:12.203Z,67.60
2022-09-11T18:05:02.501Z,68.10
2022-09-11T18:06:54.345Z,69.10
2022-09-11T18:08:44.580Z,68.10
2022-09-11T18:10:35.301Z,68.40
2022-09-11T18:12:25.570Z,69.10
2022-09-11T18:14:16.732Z,69.40
2022-09-11T18:16:11.268Z,68.70
2022-09-11T18:18:02.200Z,69.00
2022-09-11T18:19:52.421Z,69.20
2022-09-11T18:21:46.633Z,69.50
2022-09-11T18:23:42.796Z,70.10
2022-09-11T18:25:36.828Z,70.60
2022-09-11T18:27:27.326Z,70.70
2022-09-11T18:29:20.037Z,70.70
2022-09-11T18:31:11.443Z,71.30
2022-09-11T18:33:01.998Z,70.90
2022-09-11T18:34:52.435Z,70.90
2022-09-11T18:36:43.206Z,70.70
2022-09-11T18:38:33.659Z,70.60
2022-09-11T18:40:25.345Z,71.10
2022-09-11T18:42:15.587Z,71.40
2022-09-11T18:44:08.360Z,71.50
2022-09-11T18:46:01.987Z,71.60
2022-09-11T18:47:52.899Z,71.50
2022-09-11T18:49:43.694Z,71.80
2022-09-11T18:51:34.809Z,71.80
2022-09-11T18:53:25.168Z,71.50
2022-09-11T18:55:16.175Z,71.50
2022-09-11T18:57:08.123Z,71.80
2022-09-11T18:59:00.216Z,72.00
2022-09-11T19:00:50.761Z,72.30
2022-09-11T19:02:41.129Z,72.50
2022-09-11T19:04:31.510Z,72.50
2022-09-11T19:06:23.556Z,72.50
2022-09-11T19:08:14.428Z,72.80
2022-09-11T19:10:06.685Z,73.10
2022-09-11T19:11:57.047Z,73.10
2022-09-11T19:13:49.872Z,73.20
2022-09-11T19:15:40.450Z,73.30
2022-09-11T19:17:30.904Z,73.40
2022-09-11T19:19:21.540Z,73.20
2022-09-11T19:21:13.917Z,73.10
2022-09-11T19:23:04.606Z,73.50
2022-09-11T19:24:54.845Z,73.80
2022-09-11T19:26:45.781Z,74.10
2022-09-11T19:28:38.046Z,73.90
2022-09-11T19:30:30.120Z,74.20
2022-09-11T19:32:20.880Z,74.00
2022-09-11T19:34:12.520Z,74.10
2022-09-11T19:36:05.646Z,74.50
2022-09-11T19:37:56.005Z,74.50
2022-09-11T19:39:47.036Z,74.30
2022-09-11T19:41:38.944Z,74.80
2022-09-11T19:43:30.703Z,75.00
2022-09-11T19:45:26.107Z,75.50
2022-09-11T19:47:23.510Z,75.70
2022-09-11T19:49:14.321Z,75.20
2022-09-11T19:51:12.182Z,75.70
2022-09-11T19:53:09.154Z,75.50
2022-09-11T19:55:06.560Z,75.10
2022-09-11T19:57:00.350Z,75.20
2022-09-11T19:58:53.023Z,74.90
2022-09-11T20:00:45.180Z,75.70
2022-09-11T20:02:40.840Z,77.00
2022-09-11T20:04:36.456Z,76.30
2022-09-11T20:06:30.772Z,75.80
2022-09-11T20:08:21.836Z,75.50
2022-09-11T20:10:12.889Z,75.10
2022-09-11T20:12:06.429Z,75.40
2022-09-11T20:14:00.419Z,75.00
2022-09-11T20:15:55.560Z,74.90
2022-09-11T20:17:54.545Z,75.70
2022-09-11T20:19:52.398Z,75.50
2022-09-11T20:21:52.136Z,75.50
2022-09-11T20:23:45.255Z,75.90
2022-09-11T20:25:37.272Z,75.70
2022-09-11T20:27:31.789Z,76.10
2022-09-11T20:29:26.196Z,76.20
2022-09-11T20:31:24.111Z,76.20
2022-09-11T20:33:26.333Z,76.70
2022-09-11T20:35:22.457Z,76.50
2022-09-11T20:37:16.133Z,76.20
2022-09-11T20:39:11.493Z,76.50
2022-09-11T20:41:06.924Z,76.50
2022-09-11T20:43:01.844Z,76.50
2022-09-11T20:45:00.394Z,76.80
2022-09-11T20:46:56.654Z,76.70
2022-09-11T20:48:50.224Z,76.80
2022-09-11T20:50:45.859Z,76.90
2022-09-11T20:52:39.555Z,76.90
2022-09-11T20:54:30.560Z,77.30
2022-09-11T20:56:21.505Z,77.80
2022-09-11T20:58:17.800Z,78.00
2022-09-11T21:00:10.352Z,78.30
2022-09-11T21:02:01.129Z,78.70
2022-09-11T21:03:57.166Z,79.10
2022-09-11T21:05:48.362Z,78.80
2022-09-11T21:07:38.610Z,78.40
2022-09-11T21:09:29.392Z,78.40
2022-09-11T21:11:29.698Z,78.00
2022-09-11T21:13:21.332Z,78.00
2022-09-11T21:15:12.084Z,78.30
2022-09-11T21:17:03.856Z,78.30
2022-09-11T21:19:04.342Z,78.50
2022-09-11T21:20:56.773Z,78.50
2022-09-11T21:22:51.268Z,78.60
2022-09-11T21:24:41.713Z,79.10
2022-09-11T21:26:38.782Z,79.40
2022-09-11T21:28:33.968Z,79.90
2022-09-11T21:30:24.882Z,80.20
2022-09-11T21:32:15.593Z,80.30
2022-09-11T21:34:10.142Z,80.20
2022-09-11T21:36:02.057Z,80.50
2022-09-11T21:37:53.162Z,80.50
2022-09-11T21:39:45.728Z,80.70
2022-09-11T21:41:41.796Z,80.50
2022-09-11T21:43:33.597Z,80.30
2022-09-11T21:45:24.851Z,80.70
2022-09-11T21:47:18.687Z,81.00
2022-09-11T21:49:12.644Z,81.20
2022-09-11T21:51:14.193Z,81.40
2022-09-11T21:53:06.932Z,81.40
2022-09-11T21:54:57.106Z,81.50
2022-09-11T21:56:47.593Z,81.60
2022-09-11T21:58:42.421Z,81.90
2022-09-11T22:00:42.754Z,82.00
2022-09-11T22:02:34.068Z,82.00
2022-09-11T22:04:26.132Z,81.80
2022-09-11T22:06:23.716Z,81.70
2022-09-11T22:08:19.429Z,81.70
2022-09-11T22:10:17.829Z,81.60
2022-09-11T22:12:16.619Z,81.70
2022-09-11T22:14:13.555Z,81.40
2022-09-11T22:16:07.337Z,82.00
2022-09-11T22:17:58.008Z,82.20
2022-09-11T22:19:49.741Z,82.00
2022-09-11T22:21:40.409Z,82.20
2022-09-11T22:23:31.768Z,81.90
2022-09-11T22:25:23.259Z,81.90
2022-09-11T22:27:17.430Z,81.80
2022-09-11T22:29:07.997Z,81.70
2022-09-11T22:30:59.180Z,81.80
2022-09-11T22:32:50.981Z,81.30
2022-09-11T22:34:46.753Z,81.50
2022-09-11T22:36:43.344Z,81.50
2022-09-11T22:38:37.172Z,81.60
2022-09-11T22:40:28.877Z,81.70
2022-09-11T22:42:21.092Z,81.70
2022-09-11T22:44:13.427Z,81.50
2022-09-11T22:46:04.562Z,81.40
2022-09-11T22:47:56.240Z,81.50
2022-09-11T22:49:48.731Z,81.50
2022-09-11T22:51:46.686Z,81.50
2022-09-11T22:53:41.194Z,81.30
2022-09-11T22:55:33.088Z,81.50
2022-09-11T22:57:29.202Z,81.40
2022-09-11T22:59:21.050Z,81.40
2022-09-11T23:01:17.617Z,81.40
2022-09-11T23:03:13.139Z,81.50
2022-09-11T23:05:06.901Z,81.30
2022-09-11T23:06:57.710Z,81.40
2022-09-11T23:08:50.454Z,81.20
2022-09-11T23:10:41.421Z,81.30
2022-09-11T23:12:32.643Z,80.90
2022-09-11T23:14:23.365Z,81.00
2022-09-11T23:16:15.201Z,80.90
2022-09-11T23:18:10.135Z,80.50
2022-09-11T23:20:01.992Z,80.60
2022-09-11T23:21:54.934Z,80.60
2022-09-11T23:23:54.334Z,80.60
2022-09-11T23:25:45.344Z,80.50
2022-09-11T23:27:43.011Z,80.10
2022-09-11T23:29:38.238Z,80.00
2022-09-11T23:31:31.062Z,80.00
2022-09-11T23:33:22.935Z,80.10
2022-09-11T23:35:14.572Z,80.10
2022-09-11T23:37:05.217Z,80.30
2022-09-11T23:38:57.560Z,80.30
2022-09-11T23:40:48.691Z,80.30
2022-09-11T23:42:40.479Z,80.40
2022-09-11T23:44:32.774Z,80.10
2022-09-11T23:46:25.296Z,80.30
2022-09-11T23:48:17.147Z,80.50
2022-09-11T23:50:10.282Z,80.30
2022-09-11T23:52:00.732Z,80.20
2022-09-11T23:53:54.808Z,80.40
2022-09-11T23:55:50.510Z,80.30
2022-09-11T23:57:41.054Z,80.10
2022-09-11T23:59:35.924Z,80.30
